METAR Data
IDs: Format: Raw Decoded Include TAF

Data at: 2107 UTC 20 Sep 2018

METAR for:KAXV (Wapakoneta/Armstrong, OH, US)
Text:KAXV 202055Z AUTO 20005KT 10SM SCT060 SCT110 32/20 A2999 RMK AO2
Temperature: 32.0°C ( 90°F)
Dewpoint: 20.0°C ( 68°F) [RH = 49%]
Pressure (altimeter):29.99 inches Hg (1015.7 mb)
Winds:from the SSW (200 degrees) at 6 MPH (5 knots; 2.6 m/s)
Visibility:10 or more sm (16+ km)
Ceiling:at least 12,000 feet AGL
Clouds: scattered clouds at 6000 feet AGL, scattered clouds at 11000 feet AGL
QC Flag:automated observation with no human augmentation